createdAt,value
2022-08-02T00:01:24.186Z,23.50
2022-08-02T00:03:52.108Z,23.50
2022-08-02T00:06:23.668Z,23.50
2022-08-02T00:08:51.581Z,23.40
2022-08-02T00:11:26.618Z,23.40
2022-08-02T00:13:54.512Z,23.30
2022-08-02T00:16:38.284Z,23.30
2022-08-02T00:19:08.742Z,23.30
2022-08-02T00:21:36.679Z,23.30
2022-08-02T00:24:28.987Z,23.20
2022-08-02T00:26:53.041Z,23.20
2022-08-02T00:29:20.983Z,23.20
2022-08-02T00:31:50.254Z,23.10
2022-08-02T00:34:29.839Z,23.10
2022-08-02T00:36:59.086Z,23.10
2022-08-02T00:39:33.482Z,23.10
2022-08-02T00:42:03.791Z,23.30
2022-08-02T00:44:34.586Z,23.10
2022-08-02T00:47:03.873Z,23.20
2022-08-02T00:49:34.312Z,23.20
2022-08-02T00:52:02.392Z,23.30
2022-08-02T00:54:30.348Z,23.10
2022-08-02T00:57:00.284Z,23.10
2022-08-02T00:59:34.318Z,23.10
2022-08-02T01:02:03.693Z,23.10
2022-08-02T01:04:32.376Z,23.20
2022-08-02T01:07:01.368Z,23.10
2022-08-02T01:09:29.554Z,23.10
2022-08-02T01:11:57.582Z,23.00
2022-08-02T01:14:30.820Z,23.00
2022-08-02T01:17:07.585Z,22.90
2022-08-02T01:19:46.537Z,22.90
2022-08-02T01:22:59.445Z,22.80
2022-08-02T01:25:33.798Z,22.80
2022-08-02T01:28:33.360Z,22.80
2022-08-02T01:31:15.207Z,22.80
2022-08-02T01:33:51.152Z,22.80
2022-08-02T01:36:21.217Z,22.80
2022-08-02T01:38:54.324Z,22.80
2022-08-02T01:41:25.136Z,22.80
2022-08-02T01:43:58.967Z,22.90
2022-08-02T01:46:29.349Z,22.90
2022-08-02T01:49:01.308Z,22.80
2022-08-02T01:51:47.696Z,22.90
2022-08-02T01:54:20.611Z,22.90
2022-08-02T01:56:51.079Z,22.80
2022-08-02T01:59:22.818Z,22.90
2022-08-02T02:01:52.995Z,22.80
2022-08-02T02:04:23.237Z,22.80
2022-08-02T02:06:53.308Z,22.80
2022-08-02T02:09:22.795Z,22.80
2022-08-02T02:12:11.426Z,22.90
2022-08-02T02:14:51.818Z,22.80
2022-08-02T02:18:11.981Z,22.80
2022-08-02T02:20:16.419Z,22.80
2022-08-02T02:22:44.894Z,22.70
2022-08-02T02:25:36.481Z,22.80
2022-08-02T02:28:20.350Z,22.80
2022-08-02T02:30:58.570Z,22.80
2022-08-02T02:33:29.484Z,22.80
2022-08-02T02:36:02.120Z,22.80
2022-08-02T02:38:33.203Z,22.70
2022-08-02T02:41:06.691Z,22.60
2022-08-02T02:43:36.944Z,22.60
2022-08-02T02:46:07.502Z,22.60
2022-08-02T02:48:38.219Z,22.60
2022-08-02T02:51:14.270Z,22.50
2022-08-02T02:54:32.357Z,22.50
2022-08-02T02:56:35.357Z,22.40
2022-08-02T02:59:03.936Z,22.40
2022-08-02T03:01:56.836Z,22.40
2022-08-02T03:04:25.960Z,22.20
2022-08-02T03:06:53.856Z,22.20
2022-08-02T03:09:21.931Z,22.20
2022-08-02T03:11:50.537Z,22.20
2022-08-02T03:14:21.461Z,22.30
2022-08-02T03:16:54.902Z,22.30
2022-08-02T03:19:23.927Z,22.30
2022-08-02T03:22:07.168Z,22.30
2022-08-02T03:24:35.005Z,22.30
2022-08-02T03:27:05.279Z,22.30
2022-08-02T03:29:34.734Z,22.40
2022-08-02T03:32:04.894Z,22.40
2022-08-02T03:34:33.015Z,22.40
2022-08-02T03:37:03.156Z,22.30
2022-08-02T03:39:33.344Z,22.30
2022-08-02T03:42:02.025Z,22.30
2022-08-02T03:44:30.112Z,22.20
2022-08-02T03:46:59.008Z,22.20
2022-08-02T03:49:31.651Z,22.50
2022-08-02T03:52:01.706Z,22.30
2022-08-02T03:54:45.498Z,22.30
2022-08-02T03:57:15.494Z,22.30
2022-08-02T03:59:47.415Z,22.30
2022-08-02T04:02:15.489Z,22.30
2022-08-02T04:04:53.074Z,22.30
2022-08-02T04:08:33.995Z,22.30
2022-08-02T04:10:18.158Z,22.30
2022-08-02T04:12:46.753Z,22.30
2022-08-02T04:15:15.882Z,22.20
2022-08-02T04:17:49.350Z,22.20
2022-08-02T04:20:21.073Z,22.20
2022-08-02T04:22:53.825Z,22.30
2022-08-02T04:25:35.287Z,22.20
2022-08-02T04:28:16.599Z,22.20
2022-08-02T04:30:48.846Z,22.10
2022-08-02T04:33:17.479Z,22.00
2022-08-02T04:35:59.270Z,22.10
2022-08-02T04:38:30.235Z,22.10
2022-08-02T04:40:58.303Z,22.10
2022-08-02T04:43:26.219Z,22.10
2022-08-02T04:45:58.374Z,22.00
2022-08-02T04:48:26.306Z,22.00
2022-08-02T04:50:57.971Z,22.10
2022-08-02T04:53:28.452Z,22.10
2022-08-02T04:55:56.302Z,22.00
2022-08-02T04:58:40.113Z,22.10
2022-08-02T05:01:08.849Z,22.10
2022-08-02T05:03:36.922Z,22.10
2022-08-02T05:06:19.443Z,22.10
2022-08-02T05:08:53.187Z,22.10
2022-08-02T05:11:30.085Z,22.10
2022-08-02T05:14:02.952Z,22.10
2022-08-02T05:16:32.130Z,22.10
2022-08-02T05:19:00.972Z,22.20
2022-08-02T05:21:40.358Z,22.10
2022-08-02T05:24:09.060Z,22.20
2022-08-02T05:26:36.955Z,22.10
2022-08-02T05:29:07.290Z,22.30
2022-08-02T05:31:35.169Z,22.50
2022-08-02T05:34:03.033Z,22.40
2022-08-02T05:36:32.328Z,22.40
2022-08-02T05:39:05.059Z,22.50
2022-08-02T05:41:35.630Z,22.50
2022-08-02T05:44:03.605Z,22.50
2022-08-02T05:46:31.585Z,22.50
2022-08-02T05:49:00.508Z,22.60
2022-08-02T05:51:37.113Z,22.60
2022-08-02T05:54:17.061Z,22.60
2022-08-02T05:56:54.058Z,22.60
2022-08-02T05:59:35.375Z,22.50
2022-08-02T06:02:35.222Z,22.60
2022-08-02T06:05:06.289Z,22.60
2022-08-02T06:07:37.634Z,22.70
2022-08-02T06:10:06.981Z,22.70
2022-08-02T06:12:42.749Z,22.80
2022-08-02T06:15:14.389Z,22.90
2022-08-02T06:17:45.651Z,22.90
2022-08-02T06:20:17.080Z,22.90
2022-08-02T06:22:49.663Z,23.00
2022-08-02T06:25:48.063Z,23.00
2022-08-02T06:28:11.421Z,23.10
2022-08-02T06:30:47.775Z,23.10
2022-08-02T06:33:15.999Z,23.10
2022-08-02T06:35:47.384Z,23.20
2022-08-02T06:38:22.279Z,23.20
2022-08-02T06:40:56.697Z,23.30
2022-08-02T06:43:32.083Z,23.30
2022-08-02T06:46:38.109Z,23.40
2022-08-02T06:48:50.629Z,23.40
2022-08-02T06:51:20.144Z,23.50
2022-08-02T06:53:50.034Z,23.50
2022-08-02T06:56:21.057Z,23.60
2022-08-02T06:58:56.838Z,23.60
2022-08-02T07:01:25.006Z,23.60
2022-08-02T07:03:53.048Z,23.70
2022-08-02T07:06:26.731Z,23.80
2022-08-02T07:09:19.528Z,23.80
2022-08-02T07:11:45.952Z,23.80
2022-08-02T07:14:13.824Z,23.90
2022-08-02T07:16:44.247Z,23.90
2022-08-02T07:19:12.196Z,23.90
2022-08-02T07:21:56.467Z,23.90
2022-08-02T07:24:33.750Z,24.00
2022-08-02T07:27:12.028Z,24.00
2022-08-02T07:29:47.946Z,24.00
2022-08-02T07:32:16.579Z,24.00
2022-08-02T07:34:50.885Z,24.00
2022-08-02T07:37:35.657Z,24.10
2022-08-02T07:40:15.299Z,24.00
2022-08-02T07:42:54.491Z,24.00
2022-08-02T07:45:27.795Z,24.10
2022-08-02T07:47:56.777Z,24.10
2022-08-02T07:50:28.333Z,24.20
2022-08-02T07:53:02.342Z,24.00
2022-08-02T07:55:39.795Z,23.80
2022-08-02T07:58:10.886Z,24.00
2022-08-02T08:00:40.847Z,24.00
2022-08-02T08:03:08.811Z,23.90
2022-08-02T08:05:37.877Z,23.80
2022-08-02T08:08:10.196Z,23.90
2022-08-02T08:10:43.158Z,24.00
2022-08-02T08:13:11.049Z,23.90
2022-08-02T08:15:39.163Z,24.00
2022-08-02T08:18:07.698Z,23.70
2022-08-02T08:20:35.719Z,23.90
2022-08-02T08:23:05.953Z,24.00
2022-08-02T08:25:39.622Z,24.00
2022-08-02T08:28:13.558Z,23.90
2022-08-02T08:30:41.724Z,24.10
2022-08-02T08:33:21.994Z,24.30
2022-08-02T08:35:57.383Z,24.40
2022-08-02T08:38:28.099Z,24.60
2022-08-02T08:41:03.777Z,24.70
2022-08-02T08:43:32.979Z,24.80
2022-08-02T08:46:00.866Z,24.80
2022-08-02T08:48:31.890Z,24.80
2022-08-02T08:51:08.864Z,24.70
2022-08-02T08:53:46.256Z,24.70
2022-08-02T08:56:16.605Z,24.60
2022-08-02T08:58:47.389Z,24.90
2022-08-02T09:01:17.929Z,25.00
2022-08-02T09:03:48.934Z,24.60
2022-08-02T09:06:16.855Z,24.50
2022-08-02T09:08:44.809Z,24.60
2022-08-02T09:11:16.793Z,24.80
2022-08-02T09:13:57.212Z,24.70
2022-08-02T09:16:37.692Z,24.80
2022-08-02T09:19:19.994Z,25.00
2022-08-02T09:22:04.952Z,25.10
2022-08-02T09:24:43.088Z,25.10
2022-08-02T09:27:17.907Z,24.90
2022-08-02T09:30:12.269Z,25.00
2022-08-02T09:32:49.807Z,25.10
2022-08-02T09:36:05.216Z,25.30
2022-08-02T09:38:23.352Z,25.20
2022-08-02T09:40:54.001Z,25.30
2022-08-02T09:43:22.245Z,25.30
2022-08-02T09:45:51.536Z,25.50
2022-08-02T09:48:21.617Z,25.60
2022-08-02T09:50:49.670Z,25.70
2022-08-02T09:53:19.590Z,26.10
2022-08-02T09:55:59.424Z,25.90
2022-08-02T09:58:27.437Z,26.00
2022-08-02T10:00:58.894Z,25.90
2022-08-02T10:03:33.963Z,26.00
2022-08-02T10:06:08.524Z,26.00
2022-08-02T10:08:37.222Z,26.00
2022-08-02T10:11:08.353Z,26.00
2022-08-02T10:13:37.214Z,26.10
2022-08-02T10:16:09.307Z,26.30
2022-08-02T10:18:40.322Z,26.20
2022-08-02T10:21:14.869Z,26.30
2022-08-02T10:23:48.157Z,26.10
2022-08-02T10:26:20.430Z,26.10
2022-08-02T10:28:55.436Z,26.00
2022-08-02T10:31:31.073Z,25.90
2022-08-02T10:36:44.089Z,26.20
2022-08-02T10:39:12.823Z,26.40
2022-08-02T10:44:29.742Z,26.50
2022-08-02T10:47:25.580Z,26.60
2022-08-02T10:49:54.955Z,26.60
2022-08-02T10:52:25.752Z,26.80
2022-08-02T10:55:00.028Z,26.90
2022-08-02T10:57:30.049Z,26.80
2022-08-02T10:59:59.618Z,26.60
2022-08-02T11:02:40.450Z,26.80
2022-08-02T11:05:13.679Z,26.90
2022-08-02T11:07:47.575Z,26.90
2022-08-02T11:10:44.320Z,26.80
2022-08-02T11:13:26.336Z,26.90
2022-08-02T11:16:01.488Z,27.10
2022-08-02T11:19:06.966Z,27.20
2022-08-02T11:21:36.232Z,27.40
2022-08-02T11:24:35.679Z,27.20
2022-08-02T11:27:04.761Z,27.40
2022-08-02T11:29:41.318Z,27.40
2022-08-02T11:32:10.640Z,27.30
2022-08-02T11:34:40.456Z,27.20
2022-08-02T11:37:08.370Z,27.40
2022-08-02T11:39:36.341Z,27.50
2022-08-02T11:42:04.383Z,27.70
2022-08-02T11:44:41.640Z,27.50
2022-08-02T11:47:09.804Z,27.50
2022-08-02T11:49:42.768Z,27.70
2022-08-02T11:52:11.946Z,27.90
2022-08-02T11:54:41.506Z,28.00
2022-08-02T11:57:21.171Z,28.10
2022-08-02T11:59:51.861Z,28.10
2022-08-02T12:02:20.969Z,28.20
2022-08-02T12:05:00.476Z,28.30
2022-08-02T12:07:34.665Z,28.40
2022-08-02T12:10:11.626Z,28.20
2022-08-02T12:12:50.748Z,28.20
2022-08-02T12:15:36.561Z,28.30
2022-08-02T12:18:22.676Z,28.10
2022-08-02T12:20:54.198Z,28.10
2022-08-02T12:23:22.075Z,28.10
2022-08-02T12:26:01.166Z,28.10
2022-08-02T12:28:29.143Z,28.00
2022-08-02T12:31:02.450Z,28.10
2022-08-02T12:33:45.195Z,28.20
2022-08-02T12:36:24.072Z,28.30
2022-08-02T12:38:52.845Z,28.40
2022-08-02T12:41:30.200Z,28.50
2022-08-02T12:44:00.463Z,28.60
2022-08-02T12:46:29.106Z,28.70
2022-08-02T12:49:17.230Z,28.80
2022-08-02T12:51:59.200Z,28.80
2022-08-02T12:54:32.145Z,28.70
2022-08-02T12:57:11.450Z,28.70
2022-08-02T12:59:41.092Z,28.60
2022-08-02T13:02:14.438Z,28.70
2022-08-02T13:04:49.805Z,28.80
2022-08-02T13:07:22.780Z,28.70
2022-08-02T13:09:50.651Z,28.80
2022-08-02T13:12:30.346Z,29.00
2022-08-02T13:14:58.248Z,29.00
2022-08-02T13:17:26.182Z,29.00
2022-08-02T13:20:07.024Z,29.10
2022-08-02T13:22:42.767Z,29.00
2022-08-02T13:25:22.815Z,28.90
2022-08-02T13:27:50.921Z,29.00
2022-08-02T13:30:20.396Z,29.00
2022-08-02T13:32:48.317Z,29.10
2022-08-02T13:35:17.859Z,29.10
2022-08-02T13:37:50.452Z,29.20
2022-08-02T13:40:22.049Z,29.30
2022-08-02T13:42:50.341Z,29.40
2022-08-02T13:45:20.572Z,29.50
2022-08-02T13:48:04.028Z,29.50
2022-08-02T13:50:33.938Z,29.60
2022-08-02T13:53:03.159Z,29.60
2022-08-02T13:55:31.522Z,29.60
2022-08-02T13:57:59.674Z,29.60
2022-08-02T14:00:34.740Z,29.20
2022-08-02T14:03:05.723Z,29.10
2022-08-02T14:05:39.396Z,29.00
2022-08-02T14:08:25.236Z,28.80
2022-08-02T14:10:55.831Z,29.20
2022-08-02T14:13:26.813Z,29.50
2022-08-02T14:16:04.805Z,29.70
2022-08-02T14:18:32.796Z,29.70
2022-08-02T14:21:03.776Z,29.70
2022-08-02T14:23:46.785Z,29.60
2022-08-02T14:26:27.450Z,29.60
2022-08-02T14:28:55.747Z,29.50
2022-08-02T14:31:23.719Z,29.30
2022-08-02T14:33:57.755Z,29.40
2022-08-02T14:36:28.306Z,29.50
2022-08-02T14:38:58.006Z,29.60
2022-08-02T14:41:25.975Z,29.70
2022-08-02T14:44:05.862Z,29.60
2022-08-02T14:46:34.639Z,29.70
2022-08-02T14:49:03.761Z,29.90
2022-08-02T14:51:35.453Z,29.90
2022-08-02T14:54:05.801Z,30.00
2022-08-02T14:56:36.598Z,30.00
2022-08-02T14:59:13.990Z,30.10
2022-08-02T15:01:41.960Z,30.10
2022-08-02T15:04:09.938Z,30.30
2022-08-02T15:06:40.189Z,30.30
2022-08-02T15:09:11.769Z,30.30
2022-08-02T15:11:47.772Z,30.40
2022-08-02T15:14:18.534Z,30.30
2022-08-02T15:16:58.000Z,30.40
2022-08-02T15:19:52.965Z,30.40
2022-08-02T15:22:17.061Z,30.40
2022-08-02T15:24:49.403Z,30.20
2022-08-02T15:27:17.725Z,30.10
2022-08-02T15:29:46.920Z,30.10
2022-08-02T15:32:18.422Z,30.10
2022-08-02T15:34:52.741Z,29.90
2022-08-02T15:37:20.698Z,30.00
2022-08-02T15:39:52.373Z,29.90
2022-08-02T15:42:21.258Z,30.00
2022-08-02T15:45:01.948Z,29.90
2022-08-02T15:47:37.040Z,29.90
2022-08-02T15:50:08.716Z,30.00
2022-08-02T15:52:40.946Z,30.00
2022-08-02T15:55:10.449Z,29.70
2022-08-02T15:57:38.374Z,29.80
2022-08-02T16:00:17.847Z,29.90
2022-08-02T16:02:48.713Z,29.90
2022-08-02T16:05:18.024Z,29.80
2022-08-02T16:07:48.396Z,29.50
2022-08-02T16:10:26.541Z,29.30
2022-08-02T16:13:14.452Z,29.20
2022-08-02T16:15:44.421Z,29.30
2022-08-02T16:18:14.811Z,29.30
2022-08-02T16:20:45.195Z,29.30
2022-08-02T16:23:15.424Z,29.40
2022-08-02T16:25:44.686Z,29.40
2022-08-02T16:28:15.046Z,29.50
2022-08-02T16:30:54.412Z,29.50
2022-08-02T16:33:33.282Z,29.50
2022-08-02T16:36:01.306Z,29.20
2022-08-02T16:38:31.438Z,29.20
2022-08-02T16:41:02.755Z,29.30
2022-08-02T16:43:30.829Z,29.30
2022-08-02T16:45:58.752Z,29.30
2022-08-02T16:48:32.052Z,29.50
2022-08-02T16:51:00.554Z,29.50
2022-08-02T16:53:36.998Z,29.50
2022-08-02T16:56:17.858Z,29.50
2022-08-02T16:58:52.601Z,29.40
2022-08-02T17:01:27.310Z,29.40
2022-08-02T17:03:57.984Z,29.50
2022-08-02T17:06:27.507Z,29.30
2022-08-02T17:08:56.179Z,29.50
2022-08-02T17:11:25.608Z,29.30
2022-08-02T17:13:53.987Z,29.40
2022-08-02T17:16:25.842Z,29.40
2022-08-02T17:18:57.524Z,29.30
2022-08-02T17:21:33.825Z,29.30
2022-08-02T17:24:05.869Z,29.30
2022-08-02T17:26:38.368Z,29.40
2022-08-02T17:29:15.163Z,29.30
2022-08-02T17:32:05.152Z,29.30
2022-08-02T17:34:40.171Z,29.30
2022-08-02T17:37:24.203Z,29.30
2022-08-02T17:39:52.340Z,29.10
2022-08-02T17:42:28.779Z,29.20
2022-08-02T17:45:06.868Z,29.30
2022-08-02T17:48:03.925Z,29.30
2022-08-02T17:50:33.237Z,29.30
2022-08-02T17:53:01.910Z,29.20
2022-08-02T17:55:42.258Z,29.20
2022-08-02T17:58:12.533Z,28.90
2022-08-02T18:00:45.964Z,28.80
2022-08-02T18:03:14.708Z,28.70
2022-08-02T18:05:55.313Z,28.60
2022-08-02T18:08:24.138Z,28.50
2022-08-02T18:10:58.029Z,28.70
2022-08-02T18:13:32.925Z,28.80
2022-08-02T18:16:04.105Z,29.00
2022-08-02T18:18:32.115Z,29.00
2022-08-02T18:21:15.809Z,29.00
2022-08-02T18:23:58.222Z,29.20
2022-08-02T18:26:30.064Z,29.20
2022-08-02T18:29:04.124Z,29.20
2022-08-02T18:31:39.241Z,29.20
2022-08-02T18:34:08.654Z,29.30
2022-08-02T18:36:36.765Z,29.20
2022-08-02T18:39:15.588Z,29.30
2022-08-02T18:41:45.022Z,29.20
2022-08-02T18:44:18.725Z,29.20
2022-08-02T18:46:46.872Z,29.20
2022-08-02T18:49:20.289Z,29.20
2022-08-02T18:51:49.183Z,29.20
2022-08-02T18:54:30.581Z,29.20
2022-08-02T18:56:59.362Z,29.20
2022-08-02T18:59:28.626Z,29.10
2022-08-02T19:02:08.515Z,29.00
2022-08-02T19:04:36.421Z,29.00
2022-08-02T19:07:08.068Z,29.00
2022-08-02T19:09:40.028Z,28.80
2022-08-02T19:12:11.324Z,28.80
2022-08-02T19:14:43.381Z,28.80
2022-08-02T19:17:54.070Z,28.80
2022-08-02T19:19:59.555Z,28.80
2022-08-02T19:22:27.960Z,28.80
2022-08-02T19:25:01.806Z,28.80
2022-08-02T19:30:22.241Z,28.70
2022-08-02T19:33:03.241Z,28.70
2022-08-02T19:35:37.454Z,28.70
2022-08-02T19:38:25.404Z,28.70
2022-08-02T19:40:54.290Z,28.60
2022-08-02T19:44:26.242Z,28.60
2022-08-02T19:46:16.258Z,28.60
2022-08-02T19:48:47.453Z,28.60
2022-08-02T19:51:15.604Z,28.60
2022-08-02T19:54:05.815Z,28.50
2022-08-02T19:56:41.807Z,28.50
2022-08-02T19:59:13.102Z,28.50
2022-08-02T20:01:48.813Z,28.50
2022-08-02T20:04:22.883Z,28.40
2022-08-02T20:06:51.221Z,28.40
2022-08-02T20:09:22.273Z,28.30
2022-08-02T20:11:54.342Z,28.30
2022-08-02T20:14:26.712Z,28.30
2022-08-02T20:16:56.852Z,28.30
2022-08-02T20:19:30.780Z,28.50
2022-08-02T20:22:01.219Z,28.30
2022-08-02T20:24:29.569Z,28.20
2022-08-02T20:26:59.431Z,28.20
2022-08-02T20:29:43.542Z,28.20
2022-08-02T20:32:22.491Z,28.10
2022-08-02T20:34:53.523Z,28.10
2022-08-02T20:38:00.339Z,28.10
2022-08-02T20:40:16.772Z,28.00
2022-08-02T20:42:45.514Z,28.00
2022-08-02T20:45:18.610Z,28.00
2022-08-02T20:47:49.858Z,27.90
2022-08-02T20:50:36.781Z,27.80
2022-08-02T20:53:05.860Z,27.80
2022-08-02T20:55:35.525Z,27.50
2022-08-02T20:58:04.381Z,27.40
2022-08-02T21:00:32.497Z,27.30
2022-08-02T21:03:02.682Z,27.20
2022-08-02T21:05:43.964Z,27.20
2022-08-02T21:08:24.331Z,27.00
2022-08-02T21:10:53.282Z,27.00
2022-08-02T21:16:18.280Z,26.90
2022-08-02T21:18:48.815Z,27.00
2022-08-02T21:21:29.696Z,27.10
2022-08-02T21:23:58.730Z,27.10
2022-08-02T21:26:31.173Z,27.20
2022-08-02T21:29:03.945Z,27.30
2022-08-02T21:31:36.433Z,27.10
2022-08-02T21:34:22.438Z,27.10
2022-08-02T21:36:55.699Z,27.00
2022-08-02T21:39:23.806Z,26.70
2022-08-02T21:41:51.848Z,26.80
2022-08-02T21:44:21.573Z,26.80
2022-08-02T21:46:51.974Z,27.00
2022-08-02T21:49:41.164Z,27.10
2022-08-02T21:52:10.499Z,27.00
2022-08-02T21:54:40.123Z,26.60
2022-08-02T21:57:15.398Z,26.60
2022-08-02T21:59:47.198Z,26.70
2022-08-02T22:02:18.624Z,26.70
2022-08-02T22:04:48.381Z,26.80
2022-08-02T22:07:17.479Z,26.80
2022-08-02T22:09:55.411Z,26.70
2022-08-02T22:12:27.130Z,26.70
2022-08-02T22:14:56.607Z,26.60
2022-08-02T22:17:51.424Z,26.60
2022-08-02T22:20:23.522Z,26.50
2022-08-02T22:22:52.704Z,26.50
2022-08-02T22:25:36.496Z,26.60
2022-08-02T22:28:37.774Z,26.70
2022-08-02T22:30:53.926Z,26.80
2022-08-02T22:33:46.590Z,27.00
2022-08-02T22:36:30.456Z,27.00
2022-08-02T22:38:58.344Z,27.00
2022-08-02T22:42:05.590Z,26.80
2022-08-02T22:44:18.453Z,26.80
2022-08-02T22:46:51.626Z,26.90
2022-08-02T22:49:37.597Z,27.00
2022-08-02T22:52:14.675Z,26.80
2022-08-02T22:54:47.904Z,26.80
2022-08-02T22:57:15.839Z,26.90
2022-08-02T22:58:48.174Z,28.80
2022-08-02T22:59:02.193Z,27.00
2022-08-02T22:59:43.898Z,26.90
2022-08-02T23:02:14.510Z,27.00
2022-08-02T23:04:42.510Z,27.00
2022-08-02T23:07:12.478Z,27.00
2022-08-02T23:09:41.714Z,27.00
2022-08-02T23:12:11.372Z,27.00
2022-08-02T23:14:39.212Z,27.00
2022-08-02T23:17:24.566Z,27.00
2022-08-02T23:19:52.590Z,27.00
2022-08-02T23:22:21.744Z,27.00
2022-08-02T23:25:01.947Z,26.90
2022-08-02T23:27:32.497Z,27.00
2022-08-02T23:30:00.907Z,27.00
2022-08-02T23:32:31.281Z,27.00
2022-08-02T23:35:01.667Z,27.00
2022-08-02T23:37:59.554Z,26.90
2022-08-02T23:40:38.763Z,27.00
2022-08-02T23:43:15.374Z,26.90
2022-08-02T23:45:46.597Z,26.90
2022-08-02T23:48:14.659Z,26.90
2022-08-02T23:50:42.550Z,26.80
2022-08-02T23:53:10.439Z,26.90
2022-08-02T23:55:45.726Z,26.80
2022-08-02T23:58:13.949Z,26.80
